Terminal Aerodrome Forecast
Issued by NWS

Home | Current Version | Previous Version | Text Only | Print | Product List | Glossary On
Versions: 1 2 3 4 5 6 7 8 9 10 11 12
000
FTUS45 KRIW 232300
TAFBPI
TAF
KBPI 232320Z 2400/2424 VRB08G15KT P6SM -TSRA SCT025 OVC040CB
     FM240030 VRB06KT P6SM VCSH SCT020 BKN040
     FM240800 34007KT P6SM SCT025 BKN050
     FM242000 35014KT P6SM VCTS SCT025CB BKN060=

USA.gov is the U.S. government's official web portal to all federal, state and local government web resources and services.